sensor_id;sensor_type;location;lat;lon;timestamp;temperature;humidity
15983;DHT22;14442;50.196;8.096;2023-05-10T00:00:37;21.50;60.40
15983;DHT22;14442;50.196;8.096;2023-05-10T00:03:04;21.50;60.40
15983;DHT22;14442;50.196;8.096;2023-05-10T00:05:32;21.50;60.40
15983;DHT22;14442;50.196;8.096;2023-05-10T00:07:59;21.40;60.30
15983;DHT22;14442;50.196;8.096;2023-05-10T00:10:25;21.50;61.10
15983;DHT22;14442;50.196;8.096;2023-05-10T00:12:52;21.50;60.30
15983;DHT22;14442;50.196;8.096;2023-05-10T00:15:18;21.50;60.30
15983;DHT22;14442;50.196;8.096;2023-05-10T00:17:45;21.50;60.30
15983;DHT22;14442;50.196;8.096;2023-05-10T00:20:12;21.50;60.10
15983;DHT22;14442;50.196;8.096;2023-05-10T00:22:40;21.40;60.10
15983;DHT22;14442;50.196;8.096;2023-05-10T00:25:08;21.40;60.20
15983;DHT22;14442;50.196;8.096;2023-05-10T00:27:35;21.40;60.10
15983;DHT22;14442;50.196;8.096;2023-05-10T00:30:02;21.40;60.10
15983;DHT22;14442;50.196;8.096;2023-05-10T00:32:28;21.40;60.20
15983;DHT22;14442;50.196;8.096;2023-05-10T00:34:55;21.40;60.20
15983;DHT22;14442;50.196;8.096;2023-05-10T00:37:22;21.40;60.10
15983;DHT22;14442;50.196;8.096;2023-05-10T00:39:50;21.40;60.10
15983;DHT22;14442;50.196;8.096;2023-05-10T00:42:17;21.40;60.10
15983;DHT22;14442;50.196;8.096;2023-05-10T00:44:43;21.40;60.10
15983;DHT22;14442;50.196;8.096;2023-05-10T00:47:12;21.40;60.10
15983;DHT22;14442;50.196;8.096;2023-05-10T00:49:38;21.40;60.10
15983;DHT22;14442;50.196;8.096;2023-05-10T00:52:06;21.40;60.10
15983;DHT22;14442;50.196;8.096;2023-05-10T00:54:32;21.40;60.10
15983;DHT22;14442;50.196;8.096;2023-05-10T00:57:00;21.40;60.00
15983;DHT22;14442;50.196;8.096;2023-05-10T00:59:28;21.40;60.00
15983;DHT22;14442;50.196;8.096;2023-05-10T01:01:55;21.40;60.00
15983;DHT22;14442;50.196;8.096;2023-05-10T01:04:21;21.40;60.00
15983;DHT22;14442;50.196;8.096;2023-05-10T01:06:51;21.40;60.00
15983;DHT22;14442;50.196;8.096;2023-05-10T01:09:18;21.30;60.60
15983;DHT22;14442;50.196;8.096;2023-05-10T01:11:45;21.30;59.90
15983;DHT22;14442;50.196;8.096;2023-05-10T01:14:13;21.30;59.90
15983;DHT22;14442;50.196;8.096;2023-05-10T01:16:42;21.30;59.80
15983;DHT22;14442;50.196;8.096;2023-05-10T01:19:15;21.30;59.80
15983;DHT22;14442;50.196;8.096;2023-05-10T01:21:49;21.20;59.70
15983;DHT22;14442;50.196;8.096;2023-05-10T01:24:50;21.30;59.90
15983;DHT22;14442;50.196;8.096;2023-05-10T01:30:35;21.30;59.80
15983;DHT22;14442;50.196;8.096;2023-05-10T01:33:12;21.30;59.80
15983;DHT22;14442;50.196;8.096;2023-05-10T01:35:47;21.30;59.90
15983;DHT22;14442;50.196;8.096;2023-05-10T01:38:22;21.30;59.80
15983;DHT22;14442;50.196;8.096;2023-05-10T01:41:00;21.30;59.80
15983;DHT22;14442;50.196;8.096;2023-05-10T01:43:36;21.20;59.70
15983;DHT22;14442;50.196;8.096;2023-05-10T01:46:07;21.30;59.80
15983;DHT22;14442;50.196;8.096;2023-05-10T01:48:38;21.30;59.80
15983;DHT22;14442;50.196;8.096;2023-05-10T01:51:06;21.30;59.80
15983;DHT22;14442;50.196;8.096;2023-05-10T01:53:35;21.20;59.60
15983;DHT22;14442;50.196;8.096;2023-05-10T01:56:04;21.20;59.70
15983;DHT22;14442;50.196;8.096;2023-05-10T01:58:32;21.20;59.70
15983;DHT22;14442;50.196;8.096;2023-05-10T02:01:03;21.20;59.50
15983;DHT22;14442;50.196;8.096;2023-05-10T02:03:31;21.20;59.50
15983;DHT22;14442;50.196;8.096;2023-05-10T02:06:00;21.20;59.40
15983;DHT22;14442;50.196;8.096;2023-05-10T02:08:28;21.20;59.50
15983;DHT22;14442;50.196;8.096;2023-05-10T02:10:56;21.20;59.50
15983;DHT22;14442;50.196;8.096;2023-05-10T02:13:23;21.20;59.50
15983;DHT22;14442;50.196;8.096;2023-05-10T02:15:51;21.20;59.50
15983;DHT22;14442;50.196;8.096;2023-05-10T02:18:19;21.20;59.50
15983;DHT22;14442;50.196;8.096;2023-05-10T02:20:47;21.10;59.40
15983;DHT22;14442;50.196;8.096;2023-05-10T02:23:17;21.20;59.30
15983;DHT22;14442;50.196;8.096;2023-05-10T02:25:45;21.20;59.40
15983;DHT22;14442;50.196;8.096;2023-05-10T02:28:12;21.20;59.30
15983;DHT22;14442;50.196;8.096;2023-05-10T02:30:41;21.20;59.50
15983;DHT22;14442;50.196;8.096;2023-05-10T02:33:08;21.20;59.40
15983;DHT22;14442;50.196;8.096;2023-05-10T02:35:36;21.20;59.40
15983;DHT22;14442;50.196;8.096;2023-05-10T02:38:04;21.10;59.30
15983;DHT22;14442;50.196;8.096;2023-05-10T02:40:35;21.20;59.30
15983;DHT22;14442;50.196;8.096;2023-05-10T02:43:04;21.10;59.20
15983;DHT22;14442;50.196;8.096;2023-05-10T02:45:32;21.10;59.20
15983;DHT22;14442;50.196;8.096;2023-05-10T02:48:01;21.10;59.20
15983;DHT22;14442;50.196;8.096;2023-05-10T02:50:30;21.10;59.20
15983;DHT22;14442;50.196;8.096;2023-05-10T02:53:00;21.10;59.10
15983;DHT22;14442;50.196;8.096;2023-05-10T02:55:35;21.10;59.10
15983;DHT22;14442;50.196;8.096;2023-05-10T02:58:03;21.10;59.20
15983;DHT22;14442;50.196;8.096;2023-05-10T03:00:30;21.10;59.10
15983;DHT22;14442;50.196;8.096;2023-05-10T03:02:57;21.10;59.10
15983;DHT22;14442;50.196;8.096;2023-05-10T03:05:24;21.10;59.10
15983;DHT22;14442;50.196;8.096;2023-05-10T03:07:52;21.10;59.10
15983;DHT22;14442;50.196;8.096;2023-05-10T03:10:19;21.10;59.10
15983;DHT22;14442;50.196;8.096;2023-05-10T03:12:56;21.10;59.10
15983;DHT22;14442;50.196;8.096;2023-05-10T03:15:31;21.10;59.10
15983;DHT22;14442;50.196;8.096;2023-05-10T03:18:06;21.10;59.00
15983;DHT22;14442;50.196;8.096;2023-05-10T03:20:36;21.10;59.10
15983;DHT22;14442;50.196;8.096;2023-05-10T03:23:07;21.00;59.00
15983;DHT22;14442;50.196;8.096;2023-05-10T03:25:34;21.10;59.10
15983;DHT22;14442;50.196;8.096;2023-05-10T03:28:03;21.10;59.10
15983;DHT22;14442;50.196;8.096;2023-05-10T03:30:31;21.10;59.00
15983;DHT22;14442;50.196;8.096;2023-05-10T03:33:04;21.10;59.00
15983;DHT22;14442;50.196;8.096;2023-05-10T03:35:31;21.10;58.90
15983;DHT22;14442;50.196;8.096;2023-05-10T03:37:58;21.10;59.00
15983;DHT22;14442;50.196;8.096;2023-05-10T03:40:25;21.10;59.00
15983;DHT22;14442;50.196;8.096;2023-05-10T03:42:54;21.10;58.90
15983;DHT22;14442;50.196;8.096;2023-05-10T03:45:22;21.10;58.90
15983;DHT22;14442;50.196;8.096;2023-05-10T03:47:48;21.10;58.90
15983;DHT22;14442;50.196;8.096;2023-05-10T03:50:15;21.10;58.90
15983;DHT22;14442;50.196;8.096;2023-05-10T03:52:42;21.10;58.90
15983;DHT22;14442;50.196;8.096;2023-05-10T03:55:09;21.10;58.90
15983;DHT22;14442;50.196;8.096;2023-05-10T03:57:35;21.10;58.90
15983;DHT22;14442;50.196;8.096;2023-05-10T04:00:03;21.10;58.90
15983;DHT22;14442;50.196;8.096;2023-05-10T04:02:31;21.00;58.70
15983;DHT22;14442;50.196;8.096;2023-05-10T04:04:57;21.10;58.90
15983;DHT22;14442;50.196;8.096;2023-05-10T04:07:24;21.00;58.70
15983;DHT22;14442;50.196;8.096;2023-05-10T04:09:51;21.00;58.70
15983;DHT22;14442;50.196;8.096;2023-05-10T04:12:17;21.00;58.80
15983;DHT22;14442;50.196;8.096;2023-05-10T04:14:44;21.00;58.70
15983;DHT22;14442;50.196;8.096;2023-05-10T04:17:11;21.00;58.70
15983;DHT22;14442;50.196;8.096;2023-05-10T04:19:39;21.10;58.80
15983;DHT22;14442;50.196;8.096;2023-05-10T04:22:05;21.00;58.70
15983;DHT22;14442;50.196;8.096;2023-05-10T04:24:32;21.00;58.70
15983;DHT22;14442;50.196;8.096;2023-05-10T04:26:58;21.00;58.70
15983;DHT22;14442;50.196;8.096;2023-05-10T04:29:25;21.00;58.60
15983;DHT22;14442;50.196;8.096;2023-05-10T04:31:52;21.00;58.70
15983;DHT22;14442;50.196;8.096;2023-05-10T04:34:20;21.00;58.60
15983;DHT22;14442;50.196;8.096;2023-05-10T04:36:48;21.00;58.60
15983;DHT22;14442;50.196;8.096;2023-05-10T04:39:15;21.00;58.60
15983;DHT22;14442;50.196;8.096;2023-05-10T04:41:41;21.00;58.70
15983;DHT22;14442;50.196;8.096;2023-05-10T04:44:08;21.00;58.60
15983;DHT22;14442;50.196;8.096;2023-05-10T04:46:34;21.00;58.60
15983;DHT22;14442;50.196;8.096;2023-05-10T04:49:01;21.00;58.60
15983;DHT22;14442;50.196;8.096;2023-05-10T04:51:28;21.00;58.60
15983;DHT22;14442;50.196;8.096;2023-05-10T04:53:56;21.00;58.60
15983;DHT22;14442;50.196;8.096;2023-05-10T04:56:23;21.00;58.60
15983;DHT22;14442;50.196;8.096;2023-05-10T04:58:51;21.00;58.60
15983;DHT22;14442;50.196;8.096;2023-05-10T05:01:18;21.00;58.50
15983;DHT22;14442;50.196;8.096;2023-05-10T05:03:44;21.00;58.60
15983;DHT22;14442;50.196;8.096;2023-05-10T05:06:11;21.00;58.50
15983;DHT22;14442;50.196;8.096;2023-05-10T05:08:38;21.00;58.50
15983;DHT22;14442;50.196;8.096;2023-05-10T05:11:06;21.00;58.50
15983;DHT22;14442;50.196;8.096;2023-05-10T05:13:32;20.90;58.40
15983;DHT22;14442;50.196;8.096;2023-05-10T05:16:00;21.00;58.60
15983;DHT22;14442;50.196;8.096;2023-05-10T05:18:27;21.00;58.70
15983;DHT22;14442;50.196;8.096;2023-05-10T05:20:54;20.90;59.20
15983;DHT22;14442;50.196;8.096;2023-05-10T05:23:20;21.10;59.20
15983;DHT22;14442;50.196;8.096;2023-05-10T05:25:50;21.10;59.10
15983;DHT22;14442;50.196;8.096;2023-05-10T05:28:19;21.10;59.00
15983;DHT22;14442;50.196;8.096;2023-05-10T05:30:45;21.10;59.00
15983;DHT22;14442;50.196;8.096;2023-05-10T05:33:13;21.10;58.90
15983;DHT22;14442;50.196;8.096;2023-05-10T05:35:40;21.10;58.80
15983;DHT22;14442;50.196;8.096;2023-05-10T05:38:08;21.10;58.70
15983;DHT22;14442;50.196;8.096;2023-05-10T05:40:35;21.10;58.70
15983;DHT22;14442;50.196;8.096;2023-05-10T05:43:01;21.20;58.60
15983;DHT22;14442;50.196;8.096;2023-05-10T05:45:29;21.20;58.60
15983;DHT22;14442;50.196;8.096;2023-05-10T05:47:56;21.30;58.50
15983;DHT22;14442;50.196;8.096;2023-05-10T05:50:23;21.30;58.50
15983;DHT22;14442;50.196;8.096;2023-05-10T05:52:49;21.30;58.40
15983;DHT22;14442;50.196;8.096;2023-05-10T05:55:16;21.40;58.40
15983;DHT22;14442;50.196;8.096;2023-05-10T05:57:43;21.40;58.20
15983;DHT22;14442;50.196;8.096;2023-05-10T06:00:10;21.40;58.20
15983;DHT22;14442;50.196;8.096;2023-05-10T06:02:38;21.50;57.90
15983;DHT22;14442;50.196;8.096;2023-05-10T06:05:06;21.60;57.70
15983;DHT22;14442;50.196;8.096;2023-05-10T06:07:33;21.60;57.80
15983;DHT22;14442;50.196;8.096;2023-05-10T06:10:00;21.70;58.50
15983;DHT22;14442;50.196;8.096;2023-05-10T06:12:26;21.70;57.80
15983;DHT22;14442;50.196;8.096;2023-05-10T06:14:53;21.70;57.80
15983;DHT22;14442;50.196;8.096;2023-05-10T06:17:20;21.50;57.80
15983;DHT22;14442;50.196;8.096;2023-05-10T06:19:48;21.60;58.00
15983;DHT22;14442;50.196;8.096;2023-05-10T06:22:15;21.60;58.00
15983;DHT22;14442;50.196;8.096;2023-05-10T06:24:41;21.60;58.00
15983;DHT22;14442;50.196;8.096;2023-05-10T06:27:08;21.60;58.00
15983;DHT22;14442;50.196;8.096;2023-05-10T06:29:35;21.60;58.00
15983;DHT22;14442;50.196;8.096;2023-05-10T06:32:02;21.70;58.10
15983;DHT22;14442;50.196;8.096;2023-05-10T06:34:29;21.70;58.10
15983;DHT22;14442;50.196;8.096;2023-05-10T06:36:57;21.80;57.90
15983;DHT22;14442;50.196;8.096;2023-05-10T06:39:23;21.80;57.70
15983;DHT22;14442;50.196;8.096;2023-05-10T06:41:50;21.70;57.60
15983;DHT22;14442;50.196;8.096;2023-05-10T06:44:17;21.70;57.60
15983;DHT22;14442;50.196;8.096;2023-05-10T06:46:44;21.80;57.70
15983;DHT22;14442;50.196;8.096;2023-05-10T06:49:10;21.80;57.60
15983;DHT22;14442;50.196;8.096;2023-05-10T06:51:37;21.80;57.70
15983;DHT22;14442;50.196;8.096;2023-05-10T06:54:05;21.80;57.60
15983;DHT22;14442;50.196;8.096;2023-05-10T06:56:32;21.90;57.80
15983;DHT22;14442;50.196;8.096;2023-05-10T06:58:58;22.10;57.60
15983;DHT22;14442;50.196;8.096;2023-05-10T07:01:25;22.10;57.40
15983;DHT22;14442;50.196;8.096;2023-05-10T07:03:52;22.10;57.30
15983;DHT22;14442;50.196;8.096;2023-05-10T07:06:18;22.20;57.20
15983;DHT22;14442;50.196;8.096;2023-05-10T07:08:45;22.20;57.20
15983;DHT22;14442;50.196;8.096;2023-05-10T07:11:13;22.30;57.10
15983;DHT22;14442;50.196;8.096;2023-05-10T07:13:40;22.30;57.10
15983;DHT22;14442;50.196;8.096;2023-05-10T07:16:09;22.30;57.00
15983;DHT22;14442;50.196;8.096;2023-05-10T07:18:36;22.40;57.00
15983;DHT22;14442;50.196;8.096;2023-05-10T07:21:03;22.40;57.00
15983;DHT22;14442;50.196;8.096;2023-05-10T07:23:30;22.40;56.90
15983;DHT22;14442;50.196;8.096;2023-05-10T07:25:57;22.50;56.90
15983;DHT22;14442;50.196;8.096;2023-05-10T07:28:25;22.50;56.80
15983;DHT22;14442;50.196;8.096;2023-05-10T07:30:51;22.50;56.80
15983;DHT22;14442;50.196;8.096;2023-05-10T07:33:18;22.50;56.80
15983;DHT22;14442;50.196;8.096;2023-05-10T07:35:45;22.50;56.80
15983;DHT22;14442;50.196;8.096;2023-05-10T07:38:11;22.50;57.50
15983;DHT22;14442;50.196;8.096;2023-05-10T07:40:39;22.50;56.80
15983;DHT22;14442;50.196;8.096;2023-05-10T07:43:06;22.50;56.90
15983;DHT22;14442;50.196;8.096;2023-05-10T07:45:34;22.50;57.50
15983;DHT22;14442;50.196;8.096;2023-05-10T07:48:01;22.50;56.80
15983;DHT22;14442;50.196;8.096;2023-05-10T07:50:28;22.50;56.70
15983;DHT22;14442;50.196;8.096;2023-05-10T07:52:54;22.60;56.80
15983;DHT22;14442;50.196;8.096;2023-05-10T07:55:21;22.60;56.90
15983;DHT22;14442;50.196;8.096;2023-05-10T07:57:48;22.50;57.00
15983;DHT22;14442;50.196;8.096;2023-05-10T08:00:18;22.60;57.30
15983;DHT22;14442;50.196;8.096;2023-05-10T08:02:47;22.60;57.20
15983;DHT22;14442;50.196;8.096;2023-05-10T08:05:14;22.40;57.00
15983;DHT22;14442;50.196;8.096;2023-05-10T08:07:40;22.30;56.70
15983;DHT22;14442;50.196;8.096;2023-05-10T08:10:08;22.30;56.60
15983;DHT22;14442;50.196;8.096;2023-05-10T08:12:36;22.30;56.80
15983;DHT22;14442;50.196;8.096;2023-05-10T08:15:03;22.20;56.80
15983;DHT22;14442;50.196;8.096;2023-05-10T08:17:30;22.30;57.00
15983;DHT22;14442;50.196;8.096;2023-05-10T08:19:58;22.30;56.90
15983;DHT22;14442;50.196;8.096;2023-05-10T08:22:25;22.40;57.00
15983;DHT22;14442;50.196;8.096;2023-05-10T08:24:51;22.40;57.60
15983;DHT22;14442;50.196;8.096;2023-05-10T08:27:18;22.40;56.80
15983;DHT22;14442;50.196;8.096;2023-05-10T08:29:45;22.50;57.00
15983;DHT22;14442;50.196;8.096;2023-05-10T08:32:11;22.50;57.70
15983;DHT22;14442;50.196;8.096;2023-05-10T08:34:38;22.60;56.90
15983;DHT22;14442;50.196;8.096;2023-05-10T08:37:06;22.50;56.80
15983;DHT22;14442;50.196;8.096;2023-05-10T08:39:34;22.50;57.00
15983;DHT22;14442;50.196;8.096;2023-05-10T08:42:03;22.50;57.00
15983;DHT22;14442;50.196;8.096;2023-05-10T08:44:31;22.50;57.00
15983;DHT22;14442;50.196;8.096;2023-05-10T08:46:59;22.50;56.80
15983;DHT22;14442;50.196;8.096;2023-05-10T08:49:31;22.40;56.80
15983;DHT22;14442;50.196;8.096;2023-05-10T08:52:01;22.40;56.90
15983;DHT22;14442;50.196;8.096;2023-05-10T08:54:30;22.40;56.90
15983;DHT22;14442;50.196;8.096;2023-05-10T08:56:57;22.40;56.90
15983;DHT22;14442;50.196;8.096;2023-05-10T08:59:24;22.40;56.80
15983;DHT22;14442;50.196;8.096;2023-05-10T09:01:51;22.40;56.80
15983;DHT22;14442;50.196;8.096;2023-05-10T09:04:19;22.40;56.70
15983;DHT22;14442;50.196;8.096;2023-05-10T09:06:46;22.40;56.60
15983;DHT22;14442;50.196;8.096;2023-05-10T09:09:13;22.40;56.60
15983;DHT22;14442;50.196;8.096;2023-05-10T09:11:41;22.40;56.60
15983;DHT22;14442;50.196;8.096;2023-05-10T09:14:08;22.50;56.80
15983;DHT22;14442;50.196;8.096;2023-05-10T09:16:35;22.50;56.60
15983;DHT22;14442;50.196;8.096;2023-05-10T09:19:02;22.50;56.50
15983;DHT22;14442;50.196;8.096;2023-05-10T09:21:30;22.50;56.40
15983;DHT22;14442;50.196;8.096;2023-05-10T09:23:57;22.60;56.30
15983;DHT22;14442;50.196;8.096;2023-05-10T09:26:28;22.60;56.00
15983;DHT22;14442;50.196;8.096;2023-05-10T09:28:58;22.60;56.10
15983;DHT22;14442;50.196;8.096;2023-05-10T09:31:43;22.50;56.00
15983;DHT22;14442;50.196;8.096;2023-05-10T09:34:10;22.40;56.10
15983;DHT22;14442;50.196;8.096;2023-05-10T09:36:36;22.40;56.10
15983;DHT22;14442;50.196;8.096;2023-05-10T09:39:15;22.40;56.10
15983;DHT22;14442;50.196;8.096;2023-05-10T09:41:42;22.40;56.10
15983;DHT22;14442;50.196;8.096;2023-05-10T09:44:10;22.40;56.10
15983;DHT22;14442;50.196;8.096;2023-05-10T09:46:37;22.40;56.00
15983;DHT22;14442;50.196;8.096;2023-05-10T09:49:05;22.40;56.00
15983;DHT22;14442;50.196;8.096;2023-05-10T09:51:32;22.50;56.00
15983;DHT22;14442;50.196;8.096;2023-05-10T09:54:09;22.50;56.00
15983;DHT22;14442;50.196;8.096;2023-05-10T09:56:37;22.50;55.90
15983;DHT22;14442;50.196;8.096;2023-05-10T09:59:06;22.50;56.00
15983;DHT22;14442;50.196;8.096;2023-05-10T10:01:35;22.50;55.90
15983;DHT22;14442;50.196;8.096;2023-05-10T10:04:03;22.60;55.90
15983;DHT22;14442;50.196;8.096;2023-05-10T10:06:35;22.50;56.00
15983;DHT22;14442;50.196;8.096;2023-05-10T10:09:03;22.60;56.20
15983;DHT22;14442;50.196;8.096;2023-05-10T10:11:30;22.60;56.30
15983;DHT22;14442;50.196;8.096;2023-05-10T10:13:56;22.50;56.30
15983;DHT22;14442;50.196;8.096;2023-05-10T10:16:24;22.60;56.40
15983;DHT22;14442;50.196;8.096;2023-05-10T10:18:52;22.60;56.50
15983;DHT22;14442;50.196;8.096;2023-05-10T10:21:19;22.60;56.40
15983;DHT22;14442;50.196;8.096;2023-05-10T10:23:46;22.60;56.20
15983;DHT22;14442;50.196;8.096;2023-05-10T10:26:13;22.60;56.00
15983;DHT22;14442;50.196;8.096;2023-05-10T10:28:47;22.50;56.00
15983;DHT22;14442;50.196;8.096;2023-05-10T10:31:25;22.50;56.20
15983;DHT22;14442;50.196;8.096;2023-05-10T10:34:00;22.60;56.20
15983;DHT22;14442;50.196;8.096;2023-05-10T10:36:28;22.60;56.20
15983;DHT22;14442;50.196;8.096;2023-05-10T10:38:59;22.60;56.20
15983;DHT22;14442;50.196;8.096;2023-05-10T10:41:31;22.60;56.20
15983;DHT22;14442;50.196;8.096;2023-05-10T10:44:36;22.60;56.20
15983;DHT22;14442;50.196;8.096;2023-05-10T10:47:22;22.70;56.00
15983;DHT22;14442;50.196;8.096;2023-05-10T10:50:01;22.80;55.90
15983;DHT22;14442;50.196;8.096;2023-05-10T10:52:31;22.70;55.50
15983;DHT22;14442;50.196;8.096;2023-05-10T10:55:01;22.70;55.60
15983;DHT22;14442;50.196;8.096;2023-05-10T10:57:30;22.60;55.70
15983;DHT22;14442;50.196;8.096;2023-05-10T11:00:20;22.60;55.80
15983;DHT22;14442;50.196;8.096;2023-05-10T11:02:49;22.60;55.80
15983;DHT22;14442;50.196;8.096;2023-05-10T11:05:38;22.60;55.90
15983;DHT22;14442;50.196;8.096;2023-05-10T11:08:10;22.60;55.90
15983;DHT22;14442;50.196;8.096;2023-05-10T11:10:38;22.70;56.10
15983;DHT22;14442;50.196;8.096;2023-05-10T11:13:06;22.60;56.00
15983;DHT22;14442;50.196;8.096;2023-05-10T11:15:35;22.70;56.00
15983;DHT22;14442;50.196;8.096;2023-05-10T11:18:17;22.70;55.90
15983;DHT22;14442;50.196;8.096;2023-05-10T11:20:50;22.60;55.80
15983;DHT22;14442;50.196;8.096;2023-05-10T11:23:17;22.60;55.80
15983;DHT22;14442;50.196;8.096;2023-05-10T11:25:45;22.60;55.60
15983;DHT22;14442;50.196;8.096;2023-05-10T11:28:12;22.70;55.60
15983;DHT22;14442;50.196;8.096;2023-05-10T11:30:40;22.70;55.60
15983;DHT22;14442;50.196;8.096;2023-05-10T11:33:08;22.60;55.50
15983;DHT22;14442;50.196;8.096;2023-05-10T11:35:38;22.70;55.70
15983;DHT22;14442;50.196;8.096;2023-05-10T11:38:07;22.70;56.40
15983;DHT22;14442;50.196;8.096;2023-05-10T11:40:34;22.70;55.90
15983;DHT22;14442;50.196;8.096;2023-05-10T11:43:01;22.70;55.80
15983;DHT22;14442;50.196;8.096;2023-05-10T11:45:28;22.70;55.70
15983;DHT22;14442;50.196;8.096;2023-05-10T11:47:57;22.70;55.50
15983;DHT22;14442;50.196;8.096;2023-05-10T11:50:24;22.80;55.40
15983;DHT22;14442;50.196;8.096;2023-05-10T11:52:51;22.80;55.40
15983;DHT22;14442;50.196;8.096;2023-05-10T11:55:19;22.90;55.30
15983;DHT22;14442;50.196;8.096;2023-05-10T11:57:46;22.90;55.40
15983;DHT22;14442;50.196;8.096;2023-05-10T12:00:14;22.90;55.40
15983;DHT22;14442;50.196;8.096;2023-05-10T12:02:40;22.90;55.40
15983;DHT22;14442;50.196;8.096;2023-05-10T12:05:08;22.90;55.50
15983;DHT22;14442;50.196;8.096;2023-05-10T12:07:35;22.90;55.50
15983;DHT22;14442;50.196;8.096;2023-05-10T12:10:05;23.00;56.20
15983;DHT22;14442;50.196;8.096;2023-05-10T12:12:41;23.00;55.60
15983;DHT22;14442;50.196;8.096;2023-05-10T12:15:11;23.00;55.40
15983;DHT22;14442;50.196;8.096;2023-05-10T12:17:39;23.00;55.50
15983;DHT22;14442;50.196;8.096;2023-05-10T12:20:16;23.00;55.50
15983;DHT22;14442;50.196;8.096;2023-05-10T12:22:45;23.00;55.70
15983;DHT22;14442;50.196;8.096;2023-05-10T12:25:12;23.00;55.60
15983;DHT22;14442;50.196;8.096;2023-05-10T12:27:41;23.00;55.50
15983;DHT22;14442;50.196;8.096;2023-05-10T12:30:19;23.00;55.40
15983;DHT22;14442;50.196;8.096;2023-05-10T12:32:45;23.10;55.40
15983;DHT22;14442;50.196;8.096;2023-05-10T12:35:12;23.00;55.30
15983;DHT22;14442;50.196;8.096;2023-05-10T12:37:39;23.10;55.60
15983;DHT22;14442;50.196;8.096;2023-05-10T12:40:07;23.00;55.40
15983;DHT22;14442;50.196;8.096;2023-05-10T12:42:34;23.00;55.40
15983;DHT22;14442;50.196;8.096;2023-05-10T12:45:03;23.10;55.40
15983;DHT22;14442;50.196;8.096;2023-05-10T12:47:30;23.00;55.60
15983;DHT22;14442;50.196;8.096;2023-05-10T12:49:57;23.00;55.40
15983;DHT22;14442;50.196;8.096;2023-05-10T12:52:25;23.10;55.40
15983;DHT22;14442;50.196;8.096;2023-05-10T12:54:52;23.10;55.20
15983;DHT22;14442;50.196;8.096;2023-05-10T12:57:20;23.10;55.30
15983;DHT22;14442;50.196;8.096;2023-05-10T12:59:46;23.00;56.00
15983;DHT22;14442;50.196;8.096;2023-05-10T13:02:15;23.10;55.40
15983;DHT22;14442;50.196;8.096;2023-05-10T13:04:43;23.00;55.20
15983;DHT22;14442;50.196;8.096;2023-05-10T13:07:10;23.00;55.10
15983;DHT22;14442;50.196;8.096;2023-05-10T13:09:37;22.90;55.40
15983;DHT22;14442;50.196;8.096;2023-05-10T13:12:04;23.00;55.60
15983;DHT22;14442;50.196;8.096;2023-05-10T13:14:31;23.00;55.70
15983;DHT22;14442;50.196;8.096;2023-05-10T13:16:57;23.00;55.70
15983;DHT22;14442;50.196;8.096;2023-05-10T13:19:26;23.00;55.50
15983;DHT22;14442;50.196;8.096;2023-05-10T13:21:52;23.10;55.50
15983;DHT22;14442;50.196;8.096;2023-05-10T13:24:19;23.10;55.40
15983;DHT22;14442;50.196;8.096;2023-05-10T13:26:45;23.10;55.50
15983;DHT22;14442;50.196;8.096;2023-05-10T13:29:12;23.10;55.50
15983;DHT22;14442;50.196;8.096;2023-05-10T13:31:39;23.10;55.50
15983;DHT22;14442;50.196;8.096;2023-05-10T13:34:05;23.10;55.70
15983;DHT22;14442;50.196;8.096;2023-05-10T13:36:34;23.10;55.70
15983;DHT22;14442;50.196;8.096;2023-05-10T13:39:00;23.10;55.70
15983;DHT22;14442;50.196;8.096;2023-05-10T13:41:28;23.10;55.80
15983;DHT22;14442;50.196;8.096;2023-05-10T13:43:55;23.10;55.80
15983;DHT22;14442;50.196;8.096;2023-05-10T13:46:22;23.10;56.40
15983;DHT22;14442;50.196;8.096;2023-05-10T13:48:48;23.10;55.90
15983;DHT22;14442;50.196;8.096;2023-05-10T13:51:15;23.20;55.90
15983;DHT22;14442;50.196;8.096;2023-05-10T13:53:43;23.20;55.70
15983;DHT22;14442;50.196;8.096;2023-05-10T13:56:10;23.10;55.30
15983;DHT22;14442;50.196;8.096;2023-05-10T13:58:36;23.00;54.70
15983;DHT22;14442;50.196;8.096;2023-05-10T14:01:03;22.80;54.50
15983;DHT22;14442;50.196;8.096;2023-05-10T14:03:31;22.70;54.40
15983;DHT22;14442;50.196;8.096;2023-05-10T14:05:58;22.70;54.50
15983;DHT22;14442;50.196;8.096;2023-05-10T14:08:24;22.60;54.60
15983;DHT22;14442;50.196;8.096;2023-05-10T14:10:53;22.60;54.60
15983;DHT22;14442;50.196;8.096;2023-05-10T14:13:21;22.60;54.70
15983;DHT22;14442;50.196;8.096;2023-05-10T14:15:48;22.60;54.90
15983;DHT22;14442;50.196;8.096;2023-05-10T14:18:15;22.60;54.90
15983;DHT22;14442;50.196;8.096;2023-05-10T14:20:41;22.70;55.00
15983;DHT22;14442;50.196;8.096;2023-05-10T14:23:08;22.80;55.10
15983;DHT22;14442;50.196;8.096;2023-05-10T14:25:35;22.90;55.10
15983;DHT22;14442;50.196;8.096;2023-05-10T14:28:04;22.90;55.10
15983;DHT22;14442;50.196;8.096;2023-05-10T14:30:31;22.80;55.00
15983;DHT22;14442;50.196;8.096;2023-05-10T14:32:59;22.90;55.10
15983;DHT22;14442;50.196;8.096;2023-05-10T14:35:26;22.90;55.00
15983;DHT22;14442;50.196;8.096;2023-05-10T14:37:53;22.90;55.00
15983;DHT22;14442;50.196;8.096;2023-05-10T14:40:20;22.90;55.00
15983;DHT22;14442;50.196;8.096;2023-05-10T14:42:47;22.90;55.00
15983;DHT22;14442;50.196;8.096;2023-05-10T14:45:15;22.90;54.90
15983;DHT22;14442;50.196;8.096;2023-05-10T14:47:41;22.90;55.00
15983;DHT22;14442;50.196;8.096;2023-05-10T14:50:08;22.90;55.00
15983;DHT22;14442;50.196;8.096;2023-05-10T14:52:35;22.90;54.90
15983;DHT22;14442;50.196;8.096;2023-05-10T14:55:02;22.90;54.90
15983;DHT22;14442;50.196;8.096;2023-05-10T14:57:28;22.90;54.90
15983;DHT22;14442;50.196;8.096;2023-05-10T14:59:56;22.90;55.00
15983;DHT22;14442;50.196;8.096;2023-05-10T15:02:24;22.90;55.10
15983;DHT22;14442;50.196;8.096;2023-05-10T15:04:50;22.80;55.20
15983;DHT22;14442;50.196;8.096;2023-05-10T15:07:17;22.90;55.20
15983;DHT22;14442;50.196;8.096;2023-05-10T15:09:44;22.90;55.10
15983;DHT22;14442;50.196;8.096;2023-05-10T15:12:11;22.90;55.20
15983;DHT22;14442;50.196;8.096;2023-05-10T15:14:37;22.90;55.10
15983;DHT22;14442;50.196;8.096;2023-05-10T15:17:06;22.90;55.20
15983;DHT22;14442;50.196;8.096;2023-05-10T15:19:34;22.80;55.20
15983;DHT22;14442;50.196;8.096;2023-05-10T15:22:01;22.80;55.20
15983;DHT22;14442;50.196;8.096;2023-05-10T15:24:28;22.90;55.30
15983;DHT22;14442;50.196;8.096;2023-05-10T15:26:55;22.90;55.30
15983;DHT22;14442;50.196;8.096;2023-05-10T15:29:21;22.90;55.20
15983;DHT22;14442;50.196;8.096;2023-05-10T15:31:48;22.90;55.00
15983;DHT22;14442;50.196;8.096;2023-05-10T15:34:15;23.00;55.50
15983;DHT22;14442;50.196;8.096;2023-05-10T15:36:44;22.90;54.70
15983;DHT22;14442;50.196;8.096;2023-05-10T15:39:11;22.90;54.90